Time;durP1;ratioP1;P1;durP2;ratioP2;P2;SDS_P1;SDS_P2;PMS_P1;PMS_P2;Temp;Humidity;BMP_temperature;BMP_pressure;BME280_temperature;BME280_humidity;BME280_pressure;Samples;Min_cycle;Max_cycle;Signal;HPM_P1;HPM_P2
2022/02/16 00:00:10;;;;;;;801.72;434.52;;;;;;;;;;4945948;29;20035;-75
2022/02/16 00:02:38;;;;;;;800.88;432.25;;;;;;;;;;4950751;28;20031;-75
2022/02/16 00:05:04;;;;;;;800.78;426.10;;;;;;;;;;4949869;28;21202;-75
2022/02/16 00:07:30;;;;;;;806.22;437.77;;;;;;;;;;4945948;29;20114;-75
2022/02/16 00:09:56;;;;;;;801.78;431.13;;;;;;;;;;4948850;29;20118;-76
2022/02/16 00:12:23;;;;;;;803.78;436.63;;;;;;;;;;4949942;28;20019;-75
2022/02/16 00:14:49;;;;;;;804.22;435.25;;;;;;;;;;4948365;28;20074;-75
2022/02/16 00:17:14;;;;;;;805.58;440.55;;;;;;;;;;4949029;29;20405;-76
2022/02/16 00:19:40;;;;;;;806.10;438.00;;;;;;;;;;4945578;28;20055;-75
2022/02/16 00:22:06;;;;;;;808.47;447.27;;;;;;;;;;4940103;29;20027;-75
2022/02/16 00:24:34;;;;;;;805.45;437.80;;;;;;;;;;4949982;28;20028;-75
2022/02/16 00:27:00;;;;;;;805.28;439.13;;;;;;;;;;4949339;28;20031;-75
2022/02/16 00:29:26;;;;;;;804.85;444.25;;;;;;;;;;4947354;28;20489;-76
2022/02/16 00:31:52;;;;;;;802.13;435.48;;;;;;;;;;4945767;29;20039;-76
2022/02/16 00:34:18;;;;;;;803.28;439.38;;;;;;;;;;4951708;28;20106;-75
2022/02/16 00:36:44;;;;;;;805.42;442.55;;;;;;;;;;4950205;28;20479;-76
2022/02/16 00:39:10;;;;;;;799.80;432.85;;;;;;;;;;4941142;28;20647;-75
2022/02/16 00:41:36;;;;;;;800.85;438.33;;;;;;;;;;4939994;29;20426;-76
2022/02/16 00:44:02;;;;;;;801.30;432.88;;;;;;;;;;4948958;29;20031;-75
2022/02/16 00:46:28;;;;;;;799.83;436.00;;;;;;;;;;4950497;29;20102;-75
2022/02/16 00:48:54;;;;;;;801.47;435.95;;;;;;;;;;4949075;28;20054;-75
2022/02/16 00:51:19;;;;;;;801.03;437.08;;;;;;;;;;4941798;28;20036;-75
2022/02/16 00:53:46;;;;;;;804.80;439.17;;;;;;;;;;4967094;28;20046;-75
2022/02/16 00:56:12;;;;;;;801.13;442.08;;;;;;;;;;4950616;28;20027;-76
2022/02/16 00:58:38;;;;;;;804.53;443.95;;;;;;;;;;4964704;28;20043;-75
2022/02/16 01:01:04;;;;;;;806.25;447.10;;;;;;;;;;4946112;28;20388;-75
2022/02/16 01:03:30;;;;;;;807.17;449.77;;;;;;;;;;4966801;28;20031;-75
2022/02/16 01:05:56;;;;;;;804.33;440.17;;;;;;;;;;4946565;29;20471;-75
2022/02/16 01:08:22;;;;;;;807.25;446.17;;;;;;;;;;4942334;28;20088;-75
2022/02/16 01:10:48;;;;;;;806.33;442.25;;;;;;;;;;4942814;28;20035;-75
2022/02/16 01:13:14;;;;;;;808.25;454.45;;;;;;;;;;4949427;28;20038;-76
2022/02/16 01:15:40;;;;;;;806.85;446.27;;;;;;;;;;4948357;29;20054;-76
2022/02/16 01:18:06;;;;;;;805.60;443.58;;;;;;;;;;4948745;28;20035;-76
2022/02/16 01:20:32;;;;;;;810.65;456.13;;;;;;;;;;4949484;29;20399;-75
2022/02/16 01:22:59;;;;;;;808.58;448.83;;;;;;;;;;4948868;28;20046;-75
2022/02/16 01:25:25;;;;;;;798.92;430.75;;;;;;;;;;4949230;28;20031;-76
2022/02/16 01:27:51;;;;;;;805.20;445.77;;;;;;;;;;4943172;28;20038;-75
2022/02/16 01:30:17;;;;;;;804.15;440.90;;;;;;;;;;4948647;28;20042;-76
2022/02/16 01:32:43;;;;;;;806.42;448.15;;;;;;;;;;4950408;28;20031;-75
2022/02/16 01:35:09;;;;;;;804.65;442.77;;;;;;;;;;4969971;28;20026;-75
2022/02/16 01:37:35;;;;;;;803.85;446.65;;;;;;;;;;4947152;29;20039;-76
2022/02/16 01:40:01;;;;;;;805.35;449.10;;;;;;;;;;4948936;28;20038;-76
2022/02/16 01:42:27;;;;;;;804.67;444.33;;;;;;;;;;4949909;28;20123;-76
2022/02/16 01:44:53;;;;;;;804.88;446.40;;;;;;;;;;4943438;28;20608;-76
2022/02/16 01:47:19;;;;;;;803.60;438.63;;;;;;;;;;4961743;28;20042;-75
2022/02/16 01:49:45;;;;;;;807.65;450.52;;;;;;;;;;4948416;29;20505;-76
2022/02/16 01:52:11;;;;;;;805.03;447.65;;;;;;;;;;4950248;28;20102;-76
2022/02/16 01:54:37;;;;;;;807.20;444.35;;;;;;;;;;4942292;28;20081;-76
2022/02/16 01:57:04;;;;;;;814.72;456.08;;;;;;;;;;4940411;29;20037;-76
2022/02/16 01:59:31;;;;;;;805.25;446.85;;;;;;;;;;4966331;28;20137;-76
2022/02/16 02:01:57;;;;;;;805.55;443.08;;;;;;;;;;4949763;28;20036;-76
2022/02/16 02:04:23;;;;;;;804.58;445.20;;;;;;;;;;4947948;28;20035;-76
2022/02/16 02:06:49;;;;;;;809.08;449.08;;;;;;;;;;4949578;28;20040;-76
2022/02/16 02:09:15;;;;;;;803.55;444.90;;;;;;;;;;4944138;28;20028;-76
2022/02/16 02:11:41;;;;;;;807.67;446.77;;;;;;;;;;4950052;28;20043;-76
2022/02/16 02:14:08;;;;;;;803.08;438.77;;;;;;;;;;4946722;29;20050;-76
2022/02/16 02:16:37;;;;;;;806.17;445.98;;;;;;;;;;4950195;28;20055;-76
2022/02/16 02:19:04;;;;;;;805.55;439.85;;;;;;;;;;4942432;29;20031;-76
2022/02/16 02:21:30;;;;;;;805.15;444.98;;;;;;;;;;4949415;28;20081;-76
2022/02/16 02:23:58;;;;;;;807.55;452.52;;;;;;;;;;4946011;28;20435;-76
2022/02/16 02:26:24;;;;;;;808.65;450.52;;;;;;;;;;4950357;28;20506;-76
2022/02/16 02:28:51;;;;;;;801.70;446.27;;;;;;;;;;4948591;28;20039;-75
2022/02/16 02:31:26;;;;;;;806.17;446.67;;;;;;;;;;4949111;28;20662;-76
2022/02/16 02:33:52;;;;;;;802.28;437.08;;;;;;;;;;4948044;28;20031;-76
2022/02/16 02:36:18;;;;;;;803.95;436.00;;;;;;;;;;4947876;28;20054;-76
2022/02/16 02:38:44;;;;;;;808.50;454.08;;;;;;;;;;4951671;28;20487;-77
2022/02/16 02:41:10;;;;;;;805.65;442.15;;;;;;;;;;4952528;29;20129;-76
2022/02/16 02:43:39;;;;;;;805.50;445.67;;;;;;;;;;4950799;28;20061;-76
2022/02/16 02:46:05;;;;;;;805.88;440.75;;;;;;;;;;4950563;29;20050;-76
2022/02/16 02:48:31;;;;;;;803.22;435.40;;;;;;;;;;4953386;28;20028;-76
2022/02/16 02:50:57;;;;;;;807.15;442.75;;;;;;;;;;4949808;29;20046;-77
2022/02/16 02:53:23;;;;;;;806.15;444.70;;;;;;;;;;4950436;29;20170;-76
2022/02/16 02:55:49;;;;;;;805.50;438.45;;;;;;;;;;4950772;29;20034;-76
2022/02/16 02:58:15;;;;;;;803.08;436.58;;;;;;;;;;4951122;29;20023;-76
2022/02/16 03:00:41;;;;;;;805.40;441.42;;;;;;;;;;4952130;28;20045;-76
2022/02/16 03:03:07;;;;;;;803.47;442.70;;;;;;;;;;4946093;29;20038;-76
2022/02/16 03:05:33;;;;;;;805.70;445.02;;;;;;;;;;4992353;28;20036;-76
2022/02/16 03:07:59;;;;;;;804.75;442.10;;;;;;;;;;4953121;28;20433;-76
2022/02/16 03:10:25;;;;;;;805.38;443.95;;;;;;;;;;4951309;29;20035;-76
2022/02/16 03:12:51;;;;;;;806.40;446.13;;;;;;;;;;4952401;28;20028;-76
2022/02/16 03:15:17;;;;;;;805.30;444.55;;;;;;;;;;4951234;28;20789;-76
2022/02/16 03:17:43;;;;;;;809.47;453.92;;;;;;;;;;4944843;28;20036;-77
2022/02/16 03:20:10;;;;;;;802.35;437.52;;;;;;;;;;4950849;29;20032;-76
2022/02/16 03:22:39;;;;;;;805.08;440.17;;;;;;;;;;4949397;28;20047;-76
2022/02/16 03:25:06;;;;;;;802.65;438.30;;;;;;;;;;4950124;28;20532;-76
2022/02/16 03:27:32;;;;;;;801.20;436.67;;;;;;;;;;4950422;29;20039;-76
2022/02/16 03:29:58;;;;;;;800.45;437.73;;;;;;;;;;4949778;29;20180;-77
2022/02/16 03:32:24;;;;;;;807.90;450.83;;;;;;;;;;4950997;29;20028;-76
2022/02/16 03:34:50;;;;;;;804.90;443.58;;;;;;;;;;4951513;28;20038;-76
2022/02/16 03:37:16;;;;;;;803.00;439.45;;;;;;;;;;4942216;29;20051;-76
2022/02/16 03:39:42;;;;;;;804.67;444.73;;;;;;;;;;4954731;28;20023;-76
2022/02/16 03:42:08;;;;;;;802.42;443.98;;;;;;;;;;4964729;28;20059;-77
2022/02/16 03:44:34;;;;;;;802.75;438.73;;;;;;;;;;4951727;29;20039;-77
2022/02/16 03:47:00;;;;;;;803.97;443.92;;;;;;;;;;4952120;28;20037;-76
2022/02/16 03:49:26;;;;;;;804.20;445.27;;;;;;;;;;4947589;28;20154;-76
2022/02/16 03:51:52;;;;;;;804.78;445.48;;;;;;;;;;4942430;29;20031;-76
2022/02/16 03:54:18;;;;;;;804.67;445.05;;;;;;;;;;4948034;29;20114;-77
2022/02/16 03:56:45;;;;;;;805.08;443.70;;;;;;;;;;4941944;29;20058;-77
2022/02/16 03:59:11;;;;;;;804.70;447.95;;;;;;;;;;4949446;29;20028;-77
2022/02/16 04:01:38;;;;;;;805.90;445.45;;;;;;;;;;4952532;28;20425;-76
2022/02/16 04:04:04;;;;;;;807.50;450.02;;;;;;;;;;4950580;28;20050;-77
2022/02/16 04:06:30;;;;;;;802.10;443.42;;;;;;;;;;4949227;28;20434;-77
2022/02/16 04:08:56;;;;;;;803.95;442.38;;;;;;;;;;4950332;28;20031;-76
2022/02/16 04:11:26;;;;;;;806.65;447.70;;;;;;;;;;4950808;28;20487;-76
2022/02/16 04:13:53;;;;;;;803.55;437.10;;;;;;;;;;4946133;29;20023;-77
2022/02/16 04:16:19;;;;;;;800.70;439.65;;;;;;;;;;4951606;28;20031;-77
2022/02/16 04:18:45;;;;;;;801.58;435.92;;;;;;;;;;4942732;28;20035;-76
2022/02/16 04:21:11;;;;;;;805.83;444.17;;;;;;;;;;4948483;29;20054;-77
2022/02/16 04:23:37;;;;;;;802.33;441.45;;;;;;;;;;4950623;28;20128;-77
2022/02/16 04:26:03;;;;;;;803.00;440.17;;;;;;;;;;4941724;28;20055;-76
2022/02/16 04:28:29;;;;;;;805.13;445.08;;;;;;;;;;4950898;29;20132;-77
2022/02/16 04:30:55;;;;;;;802.92;444.55;;;;;;;;;;4946806;28;20035;-76
2022/02/16 04:33:20;;;;;;;800.60;436.83;;;;;;;;;;4948633;28;20023;-77
2022/02/16 04:35:46;;;;;;;799.85;433.48;;;;;;;;;;4949292;28;20047;-77
2022/02/16 04:38:12;;;;;;;799.88;433.80;;;;;;;;;;4951845;28;20038;-76
2022/02/16 04:40:39;;;;;;;804.75;443.13;;;;;;;;;;4949655;28;20035;-76
2022/02/16 04:43:05;;;;;;;804.85;448.63;;;;;;;;;;4956972;28;20086;-77
2022/02/16 04:45:32;;;;;;;805.75;448.50;;;;;;;;;;4939038;29;20106;-77
2022/02/16 04:47:59;;;;;;;803.70;447.90;;;;;;;;;;4949479;29;21057;-76
2022/02/16 04:50:25;;;;;;;802.13;437.92;;;;;;;;;;4950345;28;20046;-76
2022/02/16 04:52:54;;;;;;;802.95;448.83;;;;;;;;;;4944986;28;20024;-76
2022/02/16 04:55:21;;;;;;;805.05;440.10;;;;;;;;;;4949986;28;20023;-76
2022/02/16 04:57:47;;;;;;;802.38;438.13;;;;;;;;;;4949461;29;20038;-76
2022/02/16 05:00:13;;;;;;;807.97;452.10;;;;;;;;;;4949720;28;20106;-76
2022/02/16 05:02:39;;;;;;;805.22;450.05;;;;;;;;;;4948477;29;20034;-76
2022/02/16 05:05:06;;;;;;;801.22;437.05;;;;;;;;;;4945544;29;20685;-76
2022/02/16 05:07:32;;;;;;;803.88;440.98;;;;;;;;;;4944199;28;20036;-77
2022/02/16 05:09:58;;;;;;;804.00;442.42;;;;;;;;;;4958612;28;20406;-76
2022/02/16 05:12:24;;;;;;;804.35;444.23;;;;;;;;;;4949934;28;20382;-76
2022/02/16 05:14:50;;;;;;;805.85;453.10;;;;;;;;;;4943495;28;20080;-77
2022/02/16 05:17:16;;;;;;;801.85;443.63;;;;;;;;;;4973744;28;20110;-76
2022/02/16 05:19:42;;;;;;;808.08;450.02;;;;;;;;;;4948778;28;20027;-76
2022/02/16 05:22:08;;;;;;;804.63;443.58;;;;;;;;;;4947893;28;20170;-76
2022/02/16 05:24:34;;;;;;;801.83;442.23;;;;;;;;;;4948061;29;20130;-77
2022/02/16 05:27:00;;;;;;;803.88;443.30;;;;;;;;;;4948496;29;20034;-77
2022/02/16 05:29:26;;;;;;;805.25;442.02;;;;;;;;;;4943924;29;20177;-76
2022/02/16 05:31:52;;;;;;;805.33;448.10;;;;;;;;;;4946372;29;20126;-76
2022/02/16 05:34:18;;;;;;;804.22;446.83;;;;;;;;;;4948391;29;20039;-76
2022/02/16 05:36:45;;;;;;;800.95;442.30;;;;;;;;;;4941134;28;20051;-76
2022/02/16 05:39:11;;;;;;;802.65;441.20;;;;;;;;;;4959357;28;20032;-76
2022/02/16 05:41:36;;;;;;;805.80;446.08;;;;;;;;;;4946951;28;20545;-76
2022/02/16 05:44:02;;;;;;;805.85;450.20;;;;;;;;;;4960042;28;20031;-76
2022/02/16 05:46:29;;;;;;;805.60;451.10;;;;;;;;;;4963608;28;20069;-77
2022/02/16 05:48:55;;;;;;;803.67;445.75;;;;;;;;;;5003267;28;20032;-76
2022/02/16 05:51:21;;;;;;;803.88;441.63;;;;;;;;;;4950243;28;20035;-77
2022/02/16 05:53:47;;;;;;;801.30;437.95;;;;;;;;;;4946692;28;20039;-76
2022/02/16 05:56:13;;;;;;;804.63;449.48;;;;;;;;;;4938915;28;20030;-77
2022/02/16 05:58:39;;;;;;;807.42;455.00;;;;;;;;;;4947824;29;20506;-77
2022/02/16 06:01:05;;;;;;;803.30;444.65;;;;;;;;;;4945063;29;20086;-77
2022/02/16 06:03:31;;;;;;;804.80;450.00;;;;;;;;;;4950767;28;20043;-77
2022/02/16 06:05:57;;;;;;;806.95;451.45;;;;;;;;;;4945814;28;20102;-77
2022/02/16 06:08:23;;;;;;;804.67;444.15;;;;;;;;;;4939981;29;20069;-77
2022/02/16 06:10:49;;;;;;;806.17;451.02;;;;;;;;;;4946334;29;20035;-77
2022/02/16 06:13:15;;;;;;;804.95;447.23;;;;;;;;;;4943402;29;20023;-76
2022/02/16 06:15:41;;;;;;;802.58;445.80;;;;;;;;;;4952470;28;20042;-77
2022/02/16 06:18:07;;;;;;;805.97;456.23;;;;;;;;;;4948729;28;20467;-76
2022/02/16 06:20:33;;;;;;;805.80;459.20;;;;;;;;;;4949317;28;20480;-77
2022/02/16 06:23:01;;;;;;;804.13;454.10;;;;;;;;;;4951819;28;20050;-77
2022/02/16 06:25:27;;;;;;;802.75;448.92;;;;;;;;;;4954286;28;20467;-76
2022/02/16 06:27:53;;;;;;;806.10;454.65;;;;;;;;;;4950328;29;20089;-77
2022/02/16 06:30:19;;;;;;;806.90;453.38;;;;;;;;;;4953347;28;20031;-77
2022/02/16 06:32:45;;;;;;;804.15;449.90;;;;;;;;;;4949343;28;20031;-76
2022/02/16 06:35:12;;;;;;;806.33;457.35;;;;;;;;;;4952284;28;20038;-77
2022/02/16 06:37:38;;;;;;;806.00;455.95;;;;;;;;;;4950625;29;20063;-77
2022/02/16 06:40:04;;;;;;;804.97;455.13;;;;;;;;;;4952642;28;20046;-77
2022/02/16 06:42:31;;;;;;;806.85;449.75;;;;;;;;;;4950638;29;20149;-77
2022/02/16 06:44:57;;;;;;;808.47;454.60;;;;;;;;;;4948815;28;20027;-77
2022/02/16 06:47:23;;;;;;;806.47;453.48;;;;;;;;;;4946650;29;20601;-77
2022/02/16 06:49:49;;;;;;;808.00;456.67;;;;;;;;;;4948356;29;20051;-77
2022/02/16 06:52:15;;;;;;;806.65;457.35;;;;;;;;;;4946565;29;20035;-76
2022/02/16 06:54:41;;;;;;;804.63;457.38;;;;;;;;;;4950228;28;20023;-76
2022/02/16 06:57:08;;;;;;;808.08;463.42;;;;;;;;;;4951443;28;20066;-77
2022/02/16 06:59:34;;;;;;;807.20;460.50;;;;;;;;;;4951579;29;20051;-77
2022/02/16 07:02:00;;;;;;;807.60;459.25;;;;;;;;;;4950476;29;20618;-77
2022/02/16 07:04:27;;;;;;;808.05;459.45;;;;;;;;;;4953740;28;20092;-77
2022/02/16 07:06:53;;;;;;;812.47;468.02;;;;;;;;;;4952430;28;20647;-77
2022/02/16 07:09:19;;;;;;;807.80;463.35;;;;;;;;;;4950197;28;20027;-77
2022/02/16 07:11:45;;;;;;;808.67;463.30;;;;;;;;;;4953241;28;20035;-77
2022/02/16 07:14:11;;;;;;;806.38;459.73;;;;;;;;;;4953453;28;20027;-76
2022/02/16 07:16:37;;;;;;;810.25;463.38;;;;;;;;;;4951108;29;20054;-77
2022/02/16 07:19:03;;;;;;;805.10;459.42;;;;;;;;;;4951542;28;20031;-77
2022/02/16 07:21:29;;;;;;;805.17;463.08;;;;;;;;;;4943456;28;20065;-77
2022/02/16 07:23:55;;;;;;;803.33;454.65;;;;;;;;;;4943566;28;20046;-77
2022/02/16 07:26:21;;;;;;;809.15;469.92;;;;;;;;;;4963347;28;20098;-78
2022/02/16 07:28:47;;;;;;;806.30;462.23;;;;;;;;;;4947431;28;20035;-77
2022/02/16 07:31:13;;;;;;;807.67;460.88;;;;;;;;;;4944996;29;20046;-77
2022/02/16 07:33:39;;;;;;;806.28;465.70;;;;;;;;;;4949297;29;20031;-77
2022/02/16 07:36:05;;;;;;;811.55;473.92;;;;;;;;;;4951539;28;20112;-78
2022/02/16 07:38:31;;;;;;;811.63;474.88;;;;;;;;;;4951059;28;20039;-77
2022/02/16 07:40:59;;;;;;;808.05;462.45;;;;;;;;;;4952299;28;20077;-77
2022/02/16 07:43:25;;;;;;;812.53;481.17;;;;;;;;;;4948576;28;20031;-77
2022/02/16 07:45:51;;;;;;;811.78;479.20;;;;;;;;;;4950056;29;20043;-77
2022/02/16 07:48:17;;;;;;;810.42;475.58;;;;;;;;;;4951779;28;20760;-77
2022/02/16 07:50:43;;;;;;;811.72;476.33;;;;;;;;;;4943979;28;20480;-77
2022/02/16 07:53:11;;;;;;;811.70;473.23;;;;;;;;;;4965263;28;20020;-77
2022/02/16 07:55:37;;;;;;;812.28;478.00;;;;;;;;;;4949734;29;20039;-77
2022/02/16 07:58:04;;;;;;;813.50;482.42;;;;;;;;;;4945334;29;20050;-77
2022/02/16 08:00:30;;;;;;;812.25;481.15;;;;;;;;;;4964878;28;20403;-77
2022/02/16 08:02:56;;;;;;;812.78;481.20;;;;;;;;;;4972983;28;20428;-76
2022/02/16 08:05:22;;;;;;;810.67;477.70;;;;;;;;;;4948706;28;20047;-77
2022/02/16 08:07:48;;;;;;;812.95;480.92;;;;;;;;;;4959646;28;20762;-77
2022/02/16 08:10:14;;;;;;;813.15;487.45;;;;;;;;;;4952584;28;20034;-77
2022/02/16 08:12:48;;;;;;;816.90;491.65;;;;;;;;;;4949680;29;20077;-77
2022/02/16 08:15:14;;;;;;;814.95;491.95;;;;;;;;;;4949823;29;20390;-76
2022/02/16 08:20:43;;;;;;;816.25;490.67;;;;;;;;;;4945832;29;20057;-77
2022/02/16 08:23:12;;;;;;;817.35;499.15;;;;;;;;;;4946714;29;20027;-77
2022/02/16 08:25:39;;;;;;;816.60;498.35;;;;;;;;;;4950809;28;20031;-77
2022/02/16 08:28:06;;;;;;;814.60;494.63;;;;;;;;;;4947077;29;20062;-77
2022/02/16 08:30:32;;;;;;;818.80;501.52;;;;;;;;;;4951230;28;20027;-77
2022/02/16 08:32:58;;;;;;;815.70;496.80;;;;;;;;;;4951259;28;20442;-76
2022/02/16 08:35:26;;;;;;;817.25;501.00;;;;;;;;;;4948726;28;20043;-76
2022/02/16 08:37:52;;;;;;;820.97;509.13;;;;;;;;;;4945852;28;20070;-76
2022/02/16 08:40:18;;;;;;;817.08;501.38;;;;;;;;;;4942165;28;20042;-75
2022/02/16 08:42:44;;;;;;;816.00;499.15;;;;;;;;;;4940918;28;20177;-75
2022/02/16 08:45:11;;;;;;;821.03;507.52;;;;;;;;;;4940776;28;20035;-77
2022/02/16 08:47:37;;;;;;;818.42;504.67;;;;;;;;;;4940143;28;20035;-77
2022/02/16 08:50:03;;;;;;;819.15;506.05;;;;;;;;;;4996333;28;20043;-76
2022/02/16 08:52:29;;;;;;;821.20;508.02;;;;;;;;;;4960110;28;20034;-77
2022/02/16 08:54:55;;;;;;;820.92;511.48;;;;;;;;;;4938067;28;20040;-77
2022/02/16 08:57:22;;;;;;;821.08;512.50;;;;;;;;;;4956909;28;20038;-77
2022/02/16 08:59:48;;;;;;;819.85;510.30;;;;;;;;;;4948090;28;20080;-77
2022/02/16 09:02:14;;;;;;;818.72;507.90;;;;;;;;;;4940866;28;20035;-76
2022/02/16 09:04:40;;;;;;;822.85;516.83;;;;;;;;;;4943529;28;20553;-77
2022/02/16 09:09:50;;;;;;;819.03;511.67;;;;;;;;;;4947817;28;20046;-77
2022/02/16 09:12:19;;;;;;;822.90;515.92;;;;;;;;;;4943480;28;20115;-76
2022/02/16 09:14:45;;;;;;;821.83;519.45;;;;;;;;;;4941919;28;20441;-77
2022/02/16 09:17:11;;;;;;;825.65;525.95;;;;;;;;;;4939637;28;20019;-77
2022/02/16 09:19:43;;;;;;;826.63;528.95;;;;;;;;;;4945861;28;20490;-77
2022/02/16 09:22:11;;;;;;;826.47;534.47;;;;;;;;;;4942855;28;21482;-76
2022/02/16 09:24:37;;;;;;;824.13;527.83;;;;;;;;;;4945709;29;20039;-77
2022/02/16 09:27:03;;;;;;;826.70;537.10;;;;;;;;;;4958780;28;20273;-76
2022/02/16 09:29:29;;;;;;;825.08;530.75;;;;;;;;;;4967482;28;20059;-77
2022/02/16 09:31:55;;;;;;;823.78;533.40;;;;;;;;;;4946256;28;20063;-76
2022/02/16 09:34:22;;;;;;;824.20;530.25;;;;;;;;;;4939092;28;20020;-77
2022/02/16 09:36:51;;;;;;;826.67;540.30;;;;;;;;;;4947040;28;20135;-76
2022/02/16 09:39:17;;;;;;;827.30;535.30;;;;;;;;;;4945383;29;20658;-76
2022/02/16 09:41:47;;;;;;;828.72;545.42;;;;;;;;;;4947073;29;20619;-76
2022/02/16 09:44:18;;;;;;;828.67;539.80;;;;;;;;;;4944095;29;20782;-78
2022/02/16 09:46:44;;;;;;;830.85;550.42;;;;;;;;;;4941324;28;20039;-76
2022/02/16 09:49:11;;;;;;;832.67;547.70;;;;;;;;;;4947448;28;20035;-75
2022/02/16 09:51:38;;;;;;;827.22;540.95;;;;;;;;;;4951624;28;20043;-77
2022/02/16 09:54:04;;;;;;;830.03;550.60;;;;;;;;;;4946409;28;20070;-76
2022/02/16 09:56:31;;;;;;;834.47;549.92;;;;;;;;;;4941464;28;20476;-77
2022/02/16 09:58:57;;;;;;;831.15;553.25;;;;;;;;;;4946299;28;20035;-76
2022/02/16 10:01:23;;;;;;;832.33;560.03;;;;;;;;;;4949356;28;20033;-76
2022/02/16 10:04:03;;;;;;;831.83;555.80;;;;;;;;;;4964049;28;20092;-76
2022/02/16 10:06:36;;;;;;;833.60;559.22;;;;;;;;;;4946609;28;20114;-78
2022/02/16 10:09:01;;;;;;;829.03;548.65;;;;;;;;;;4947598;28;20080;-77
2022/02/16 10:11:27;;;;;;;832.72;562.75;;;;;;;;;;4956400;28;20491;-77
2022/02/16 10:13:54;;;;;;;834.78;568.60;;;;;;;;;;4945810;29;20084;-75
2022/02/16 10:16:30;;;;;;;835.38;568.03;;;;;;;;;;4943251;29;20055;-75
2022/02/16 10:18:57;;;;;;;837.55;571.58;;;;;;;;;;4938571;28;20024;-75
2022/02/16 10:21:23;;;;;;;838.20;576.25;;;;;;;;;;4937018;28;20039;-75
2022/02/16 10:23:50;;;;;;;840.05;579.03;;;;;;;;;;4939965;28;20047;-78
2022/02/16 10:26:16;;;;;;;836.55;575.38;;;;;;;;;;4943405;28;20498;-78
2022/02/16 10:28:45;;;;;;;839.38;581.20;;;;;;;;;;4944647;28;20118;-78
2022/02/16 10:31:11;;;;;;;836.13;573.25;;;;;;;;;;4948000;28;20040;-77
2022/02/16 10:33:41;;;;;;;839.70;584.38;;;;;;;;;;4941599;28;20289;-78
2022/02/16 10:36:08;;;;;;;835.85;577.25;;;;;;;;;;4959619;28;20055;-76
2022/02/16 10:38:53;;;;;;;838.25;580.72;;;;;;;;;;4942646;28;20065;-77
2022/02/16 10:41:20;;;;;;;844.78;576.58;;;;;;;;;;4945047;28;20427;-77
2022/02/16 10:43:46;;;;;;;837.72;573.80;;;;;;;;;;4944564;28;20134;-77
2022/02/16 10:46:31;;;;;;;838.97;583.35;;;;;;;;;;4944123;28;20468;-78
2022/02/16 10:49:12;;;;;;;837.55;568.10;;;;;;;;;;4940253;29;20027;-78
2022/02/16 10:51:38;;;;;;;834.83;570.75;;;;;;;;;;4943854;28;20490;-77
2022/02/16 10:54:12;;;;;;;835.83;575.40;;;;;;;;;;4940244;29;20063;-77
2022/02/16 10:56:38;;;;;;;836.38;576.60;;;;;;;;;;4945062;28;20399;-77
2022/02/16 10:59:04;;;;;;;837.75;582.45;;;;;;;;;;4944262;28;20027;-77
2022/02/16 11:01:31;;;;;;;836.08;573.03;;;;;;;;;;4948587;28;20027;-79
2022/02/16 11:03:57;;;;;;;836.13;579.83;;;;;;;;;;4961723;28;20046;-78
2022/02/16 11:06:24;;;;;;;837.17;578.67;;;;;;;;;;4946574;28;20088;-78
2022/02/16 11:08:51;;;;;;;836.85;579.97;;;;;;;;;;4943887;29;20065;-77
2022/02/16 11:11:18;;;;;;;837.22;575.08;;;;;;;;;;4944929;28;20526;-77
2022/02/16 11:13:44;;;;;;;839.28;580.92;;;;;;;;;;4938358;29;20032;-77
2022/02/16 11:16:10;;;;;;;839.08;583.45;;;;;;;;;;4943774;28;20483;-78
2022/02/16 11:18:46;;;;;;;842.10;594.00;;;;;;;;;;4944795;28;20067;-76
2022/02/16 11:21:17;;;;;;;842.55;594.08;;;;;;;;;;4945615;29;20028;-77
2022/02/16 11:23:44;;;;;;;838.15;581.47;;;;;;;;;;4939198;28;20043;-77
2022/02/16 11:26:29;;;;;;;842.03;591.78;;;;;;;;;;4960903;28;20043;-77
2022/02/16 11:28:55;;;;;;;837.42;578.88;;;;;;;;;;4945830;28;20043;-76
2022/02/16 11:31:28;;;;;;;839.20;581.05;;;;;;;;;;4944411;29;20054;-77
2022/02/16 11:34:15;;;;;;;842.40;590.55;;;;;;;;;;4944829;28;20372;-78
2022/02/16 11:36:48;;;;;;;841.83;586.28;;;;;;;;;;4977821;28;20055;-77
2022/02/16 11:39:33;;;;;;;840.80;594.72;;;;;;;;;;4946421;28;20092;-77
2022/02/16 11:41:59;;;;;;;840.53;586.33;;;;;;;;;;4940800;28;20043;-77
2022/02/16 11:44:45;;;;;;;858.03;591.17;;;;;;;;;;4943730;28;20467;-76
2022/02/16 11:47:11;;;;;;;837.63;577.67;;;;;;;;;;4996100;28;20064;-76
2022/02/16 11:49:37;;;;;;;842.10;590.40;;;;;;;;;;4938087;29;20030;-77
2022/02/16 11:52:23;;;;;;;840.10;585.50;;;;;;;;;;4943075;28;20031;-78
2022/02/16 11:54:55;;;;;;;839.88;584.35;;;;;;;;;;5007268;28;20065;-78
2022/02/16 11:57:38;;;;;;;842.88;588.13;;;;;;;;;;4945830;28;20031;-77
2022/02/16 12:00:08;;;;;;;837.80;581.78;;;;;;;;;;4946013;29;20364;-76
2022/02/16 12:02:35;;;;;;;838.35;577.55;;;;;;;;;;4942856;28;20023;-76
2022/02/16 12:05:01;;;;;;;839.92;588.20;;;;;;;;;;4940058;29;20130;-77
2022/02/16 12:07:28;;;;;;;841.65;595.55;;;;;;;;;;4945368;28;20023;-76
2022/02/16 12:10:13;;;;;;;846.45;606.55;;;;;;;;;;4945906;28;20055;-76
2022/02/16 12:12:38;;;;;;;836.20;578.97;;;;;;;;;;4945382;28;20405;-76
2022/02/16 12:15:04;;;;;;;836.63;582.75;;;;;;;;;;4945821;28;20028;-77
2022/02/16 12:17:31;;;;;;;843.55;587.45;;;;;;;;;;4942716;29;20028;-76
2022/02/16 12:19:57;;;;;;;837.40;587.65;;;;;;;;;;4941786;29;20023;-76
2022/02/16 12:22:22;;;;;;;841.80;594.88;;;;;;;;;;4943570;28;20116;-76
2022/02/16 12:24:48;;;;;;;838.85;588.63;;;;;;;;;;4957370;28;20438;-77
2022/02/16 12:27:19;;;;;;;839.85;592.28;;;;;;;;;;4940940;28;20486;-76
2022/02/16 12:29:47;;;;;;;841.65;593.95;;;;;;;;;;4943025;28;20042;-76
2022/02/16 12:32:14;;;;;;;841.10;595.95;;;;;;;;;;4943058;28;20080;-75
2022/02/16 12:34:43;;;;;;;840.13;594.08;;;;;;;;;;4939970;28;20538;-76
2022/02/16 12:37:18;;;;;;;836.35;583.40;;;;;;;;;;4946550;28;20074;-75
2022/02/16 12:39:55;;;;;;;837.83;589.53;;;;;;;;;;4943231;28;20485;-76
2022/02/16 12:42:29;;;;;;;835.95;585.70;;;;;;;;;;4944559;28;20119;-74
2022/02/16 12:44:56;;;;;;;843.72;604.58;;;;;;;;;;4961247;28;20089;-75
2022/02/16 12:47:23;;;;;;;837.75;586.65;;;;;;;;;;4941285;29;20201;-74
2022/02/16 12:49:49;;;;;;;842.45;603.83;;;;;;;;;;4945985;28;20085;-76
2022/02/16 12:52:16;;;;;;;837.03;587.90;;;;;;;;;;4944686;28;20232;-74
2022/02/16 12:54:42;;;;;;;838.83;590.20;;;;;;;;;;4944254;28;20356;-75
2022/02/16 12:57:10;;;;;;;840.78;593.17;;;;;;;;;;4941082;28;20027;-76
2022/02/16 13:00:46;;;;;;;836.83;580.65;;;;;;;;;;4946253;28;20511;-75
2022/02/16 13:02:31;;;;;;;835.88;578.67;;;;;;;;;;4943212;28;20589;-75
2022/02/16 13:04:58;;;;;;;835.13;580.33;;;;;;;;;;4943886;28;20671;-75
2022/02/16 13:07:26;;;;;;;837.35;585.28;;;;;;;;;;4941877;28;20054;-74
2022/02/16 13:09:53;;;;;;;840.65;594.58;;;;;;;;;;4944201;28;20043;-75
2022/02/16 13:12:36;;;;;;;837.95;588.67;;;;;;;;;;4942144;28;20486;-75
2022/02/16 13:15:04;;;;;;;836.25;573.50;;;;;;;;;;4941307;28;20030;-74
2022/02/16 13:18:00;;;;;;;836.45;578.08;;;;;;;;;;4944161;28;20035;-76
2022/02/16 13:20:32;;;;;;;836.45;580.08;;;;;;;;;;4955806;28;20047;-76
2022/02/16 13:22:59;;;;;;;838.42;586.70;;;;;;;;;;4936113;29;20320;-74
2022/02/16 13:25:29;;;;;;;836.58;578.50;;;;;;;;;;4941315;29;20403;-74
2022/02/16 13:27:55;;;;;;;829.85;562.20;;;;;;;;;;4942011;28;20032;-76
2022/02/16 13:30:24;;;;;;;840.25;587.22;;;;;;;;;;4942604;28;20058;-74
2022/02/16 13:32:52;;;;;;;834.70;578.15;;;;;;;;;;4938051;28;20023;-75
2022/02/16 13:35:20;;;;;;;836.33;578.85;;;;;;;;;;4940029;29;20039;-75
2022/02/16 13:38:01;;;;;;;839.30;583.65;;;;;;;;;;4940939;28;20430;-74
2022/02/16 13:40:28;;;;;;;836.60;579.55;;;;;;;;;;4943574;29;20506;-74
2022/02/16 13:42:58;;;;;;;833.38;573.00;;;;;;;;;;4945832;28;20042;-74
2022/02/16 13:45:32;;;;;;;838.90;581.00;;;;;;;;;;4959726;28;20039;-75
2022/02/16 13:47:58;;;;;;;839.38;584.97;;;;;;;;;;4940894;29;20418;-75
2022/02/16 13:50:32;;;;;;;842.72;595.15;;;;;;;;;;4943068;29;20035;-77
2022/02/16 13:52:58;;;;;;;842.60;590.45;;;;;;;;;;4955614;28;20035;-76
2022/02/16 13:55:25;;;;;;;847.67;594.35;;;;;;;;;;4937659;29;20062;-75
2022/02/16 13:57:51;;;;;;;843.25;596.22;;;;;;;;;;4937037;28;20031;-75